• Join FlightAware (Why Join?)
  • Login
  • US Flag 
04:55AM EDT


 

Airport Tracker/Info


-or-


 

Live Flight TrackerFlight Track Log ✈ N706CJ ✈ 09-Jul-2013 ✈ KBNA - KBCT

Flight Track Log - Related Links

Times and Time Zones

All times are in EDT time to prevent confusion due to time zone crossing. See the N706CJ flight status page for this flight to view local times or setup timezone preferences in your user account.

Time Position Orientation Groundspeed Altitude Reporting Facility
EDT Latitude Longitude Course Direction KTS MPH feet Rate Location/Type
05:52PM 36.1000 -86.6833 173° South 192 221 1,500  Level Nashville TRACON
05:53PM 36.0167 -86.6833 180° South 210 242 5,100 3,420 Climbing Nashville TRACON
05:54PM 35.9833 -86.6667 158° South 222 255 8,400 3,540 Climbing Nashville TRACON
05:55PM 35.9244 -86.6683 181° South 233 268 11,100 3,120 Climbing Memphis Center
05:56PM 35.8556 -86.6664 179° South 243 280 14,300 3,120 Climbing Memphis Center
05:57PM 35.7825 -86.6644 179° South 261 300 17,400 2,520 Climbing Memphis Center
05:58PM 35.5601 -86.2498 173° South  Level Estimated
05:58PM 35.6925 -86.6583 177° South 278 320 19,400  Level Memphis Center
06:00PM 35.5300 -86.6417 175° South 343 395 22,600 1,680 Climbing Atlanta Center
06:01PM 35.4261 -86.6283 174° South 377 434 24,200 1,740 Climbing Atlanta Center
06:02PM 35.3094 -86.6144 174° South 396 456 26,100 1,740 Climbing Atlanta Center
06:03PM 35.1908 -86.6056 176° South 420 483 27,700 1,620 Climbing Atlanta Center
06:04PM 35.0681 -86.5892 174° South 435 501 29,400 1,560 Climbing Atlanta Center
06:05PM 34.9431 -86.5778 176° South 447 514 30,900 1,500 Climbing Atlanta Center
06:06PM 34.8181 -86.5639 175° South 452 520 32,400 1,500 Climbing Atlanta Center
06:07PM 34.6869 -86.5522 176° South 463 533 34,000 1,500 Climbing Atlanta Center
06:08PM 34.5558 -86.5383 175° South 468 539 35,500 1,500 Climbing Atlanta Center
06:09PM 34.4225 -86.5267 176° South 473 544 37,000 1,560 Climbing Atlanta Center
06:10PM 34.2953 -86.5131 175° South 473 544 38,700 1,680 Climbing Atlanta Center
06:11PM 34.1703 -86.5017 176° South 473 544 40,400 1,140 Climbing Atlanta Center
06:12PM 34.0433 -86.4881 175° South 463 533 41,000 300 Climbing Atlanta Center
06:13PM 33.9161 -86.4769 176° South 463 533 41,000  Level Atlanta Center
06:14PM 33.7914 -86.4633 175° South 463 533 41,000  Level Atlanta Center
06:15PM 33.6664 -86.4525 176° South 463 533 41,000  Level Atlanta Center
06:16PM 33.5411 -86.4414 176° South 463 533 41,000  Level Atlanta Center
06:17PM 33.4144 -86.4081 168° South 446 513 41,000  Level Atlanta Center
06:18PM 33.2964 -86.3650 163° South 436 502 41,000  Level Atlanta Center
06:19PM 33.1806 -86.3172 161° South 436 502 41,000  Level Atlanta Center
06:20PM 33.0644 -86.2672 160° South 436 502 41,000  Level Atlanta Center
06:21PM 32.9461 -86.2294 165° South 436 502 41,000  Level Atlanta Center
06:22PM 32.8325 -86.1672 155° Southeast 436 502 41,000  Level Atlanta Center
06:23PM 32.7336 -86.0858 145° Southeast 436 502 41,000  Level Atlanta Center
06:24PM 32.6328 -85.9997 144° Southeast 441 507 41,000  Level Atlanta Center
06:25PM 32.5503 -85.9339 146° Southeast 446 513 41,000  Level Atlanta Center
06:26PM 32.4347 -85.8500 148° Southeast 451 519 41,000  Level Atlanta Center
06:27PM 32.3358 -85.7622 143° Southeast 445 512 41,000  Level Atlanta Center
06:28PM 32.2325 -85.6792 146° Southeast 445 512 41,000  Level Atlanta Center
06:29PM 32.1314 -85.5986 146° Southeast 450 518 41,000  Level Atlanta Center
06:30PM 32.0278 -85.5186 147° Southeast 445 512 41,000  Level Atlanta Center
06:31PM 31.9225 -85.4361 146° Southeast 445 512 41,000  Level Atlanta Center
06:32PM 31.8231 -85.3572 146° Southeast 443 510 41,000  Level Jacksonville Center
06:33PM 31.7203 -85.2811 148° Southeast 437 503 41,000  Level Jacksonville Center
06:34PM 31.6194 -85.1956 144° Southeast 432 497 41,000  Level Jacksonville Center
06:35PM 31.5164 -85.1225 149° Southeast 437 503 41,000  Level Jacksonville Center
06:36PM 31.4258 -85.0497 146° Southeast 437 503 41,000  Level Jacksonville Center
06:37PM 31.3289 -84.9744 146° Southeast 437 503 41,000  Level Jacksonville Center
06:38PM 31.2278 -84.8944 146° Southeast 437 503 41,000  Level Jacksonville Center
06:39PM 31.1267 -84.8169 147° Southeast 432 497 41,000  Level Jacksonville Center
06:40PM 31.0236 -84.7422 148° Southeast 437 503 41,000  Level Jacksonville Center
06:41PM 30.9242 -84.6797 152° Southeast 443 510 41,000 -60 Level Jacksonville Center
06:42PM 30.8000 -84.5975 150° Southeast 443 510 40,900 -60 Descending Jacksonville Center
06:43PM 30.6922 -84.5328 153° Southeast 437 503 40,900  Level Jacksonville Center
06:44PM 30.5825 -84.4731 155° Southeast 432 497 41,000  Climbing Jacksonville Center
06:45PM 30.4767 -84.4064 151° Southeast 427 491 41,000 -60 Level Jacksonville Center
06:46PM 30.3689 -84.3444 154° Southeast 427 491 40,900 -60 Descending Jacksonville Center
06:47PM 30.2611 -84.2803 153° Southeast 427 491 40,900  Level Jacksonville Center
06:48PM 30.1553 -84.2186 153° Southeast 427 491 40,900  Level Jacksonville Center
06:49PM 30.0744 -84.1481 143° Southeast 421 484 40,900  Level Jacksonville Center
06:50PM 29.9836 -84.0603 140° Southeast 421 484 40,900  Level Jacksonville Center
06:51PM 29.8883 -83.9756 142° Southeast 427 491 40,900  Level Jacksonville Center
06:52PM 29.7908 -83.8858 141° Southeast 438 504 40,900  Level Jacksonville Center
06:53PM 29.6933 -83.7964 141° Southeast 443 510 40,900  Level Jacksonville Center
06:54PM 29.5981 -83.7072 141° Southeast 443 510 40,900  Level Jacksonville Center
06:55PM 29.5003 -83.6203 142° Southeast 443 510 40,900  Level Jacksonville Center
06:56PM 29.4028 -83.5314 142° Southeast 443 510 41,000  Climbing Jacksonville Center
06:57PM 29.3069 -83.4450 142° Southeast 443 510 40,900 -60 Descending Jacksonville Center
06:58PM 29.2094 -83.3564 142° Southeast 443 510 40,900  Level Jacksonville Center
06:59PM 29.1136 -83.2706 142° Southeast 443 510 40,900  Level Jacksonville Center
07:00PM 29.0158 -83.1822 142° Southeast 443 510 40,900  Level Jacksonville Center
07:01PM 28.9197 -83.0942 141° Southeast 443 510 40,900  Level Jacksonville Center
07:02PM 28.8114 -82.9992 142° Southeast 443 510 40,900  Level Jacksonville Center
07:03PM 28.7156 -82.9114 141° Southeast 443 510 40,900 -180 Level Jacksonville Center
07:04PM 28.6319 -82.8406 143° Southeast 438 504 40,600 -840 Descending Jacksonville Center
07:05PM 28.5381 -82.7556 141° Southeast 438 504 39,300 -1,260 Descending Jacksonville Center
07:06PM 28.4481 -82.6778 143° Southeast 433 498 38,100 -1,260 Descending Jacksonville Center
07:07PM 28.3561 -82.5953 142° Southeast 427 491 36,800 -1,440 Descending Jacksonville Center
07:08PM 28.1878 -82.4456 142° Southeast 420 483 34,400 -1,500 Descending Miami Center
07:09PM 28.0889 -82.3608 143° Southeast 438 504 33,000 -780 Descending Miami Center
07:10PM 27.9769 -82.2872 150° Southeast 454 522 32,900 -60 Descending Miami Center
07:11PM 27.8511 -82.2461 164° South 454 522 32,900 -600 Level Miami Center
07:12PM 27.7419 -82.2081 163° South 460 529 31,700 -1,380 Descending Miami Center
07:13PM 27.6164 -82.1669 164° South 465 535 30,200 -1,740 Descending Miami Center
07:14PM 27.4786 -82.1653 179° South 456 525 28,300 -1,680 Descending Miami Center
07:15PM 27.3672 -82.2419 211° Southwest 456 525 26,900 -1,500 Descending Miami Center
07:16PM 27.2539 -82.3161 210° Southwest 467 537 25,300 -1,500 Descending Miami Center
07:17PM 27.1258 -82.3356 188° South 467 537 24,000 -660 Descending Miami Center
07:18PM 27.0181 -82.2583 147° Southeast 431 496 24,000 -60 Level Miami Center
07:19PM 26.9556 -82.1436 121° Southeast 393 452 23,900 -60 Descending Miami Center
07:20PM 26.8997 -82.0156 116° Southeast 425 489 23,900 -600 Level Miami Center
07:21PM 26.8306 -81.9031 125° Southeast 440 506 22,800 -1,500 Descending Miami Center
07:22PM 26.7589 -81.8000 128° Southeast 430 495 20,900 -1,860 Descending Miami Center
07:23PM 26.6931 -81.7067 128° Southeast 406 467 19,100 -960 Descending Miami Center
07:24PM 26.6906 -81.5950 91° East 349 402 19,000 -300 Descending Miami Center
07:25PM 26.7211 -81.4892 72° East 360 414 18,600 -780 Descending Miami Center
07:26PM 26.7472 -81.3925 73° East 355 409 17,500 -1,500 Descending Miami Center
07:27PM 26.7711 -81.2889 75° East 344 396 15,700 -2,220 Descending Miami Center
07:28PM 26.7950 -81.1897 75° East 331 381 13,100 -2,280 Descending Miami Center
07:29PM 26.8167 -81.0975 75° East 321 369 11,200 -1,860 Descending Miami Center
07:30PM 26.8131 -81.0019 92° East 301 346 9,400 -1,140 Descending Miami Center
07:31PM 26.8072 -80.9181 94° East 283 326 9,000 -240 Descending Miami Center
07:32PM 26.8014 -80.8222 94° East 278 320 9,000 -60 Level Miami Center
07:33PM 26.7806 -80.7403 106° East 273 314 8,900 -540 Descending Miami Center
07:34PM 26.7344 -80.6736 128° Southeast 267 307 8,000 -480 Descending Miami Center
07:35PM 26.6983 -80.6167 125° Southeast 262 302 8,000 -480 Level Miami Center
07:36PM 26.6500 -80.5408 125° Southeast 256 295 7,100 -1,200 Descending Miami Center
07:37PM 26.6119 -80.4792 125° Southeast 262 302 5,600 -1,680 Descending Miami Center
07:38PM 26.5658 -80.4058 125° Southeast 267 307 3,800 -1,320 Descending Miami Center
07:39PM 26.5294 -80.3489 126° Southeast 267 307 3,000 -720 Descending Miami Center
07:41PM 26.4669 -80.2567 127° Southeast 241 277 2,200 -600 Descending Miami Center
07:42PM 26.4264 -80.2044 131° Southeast 196 226 1,500 -540 Descending Miami Center
07:43PM 26.3811 -80.1753 150° Southeast 147 169 1,100 -360 Descending Miami Center
07:44PM 26.3544 -80.1561 147° Southeast 146 168 900 -300 Descending Miami Center
07:46PM 26.3667 -80.1000 180° South  Level FlightAware Approximate
07:53PM 26.3785 -80.1077 180° South  Level Estimated